sensor_id;sensor_type;location;lat;lon;timestamp;pressure;altitude;pressure_sealevel;temperature;humidity
27613;BME280;15036;48.094;-1.690;2023-02-12T00:01:33;102942.28;;;11.08;56.67
27613;BME280;15036;48.094;-1.690;2023-02-12T00:03:59;102944.72;;;11.11;56.69
27613;BME280;15036;48.094;-1.690;2023-02-12T00:06:25;102942.59;;;11.05;56.55
27613;BME280;15036;48.094;-1.690;2023-02-12T00:08:52;102948.06;;;11.05;56.62
27613;BME280;15036;48.094;-1.690;2023-02-12T00:11:26;102939.44;;;10.90;57.02
27613;BME280;15036;48.094;-1.690;2023-02-12T00:13:52;102936.97;;;11.06;56.75
27613;BME280;15036;48.094;-1.690;2023-02-12T00:16:22;102950.63;;;11.06;56.74
27613;BME280;15036;48.094;-1.690;2023-02-12T00:18:50;102947.06;;;10.96;56.67
27613;BME280;15036;48.094;-1.690;2023-02-12T00:21:16;102942.59;;;10.95;56.92
27613;BME280;15036;48.094;-1.690;2023-02-12T00:23:41;102946.22;;;10.86;56.81
27613;BME280;15036;48.094;-1.690;2023-02-12T00:26:11;102947.09;;;10.87;56.99
27613;BME280;15036;48.094;-1.690;2023-02-12T00:28:37;102949.84;;;10.77;57.09
27613;BME280;15036;48.094;-1.690;2023-02-12T00:31:17;102940.00;;;10.94;56.66
27613;BME280;15036;48.094;-1.690;2023-02-12T00:33:42;102940.59;;;10.88;56.69
27613;BME280;15036;48.094;-1.690;2023-02-12T00:36:14;102945.38;;;10.76;57.01
27613;BME280;15036;48.094;-1.690;2023-02-12T00:38:40;102944.63;;;10.84;56.87
27613;BME280;15036;48.094;-1.690;2023-02-12T00:41:05;102952.69;;;10.76;56.87
27613;BME280;15036;48.094;-1.690;2023-02-12T00:43:31;102951.72;;;10.77;56.89
27613;BME280;15036;48.094;-1.690;2023-02-12T00:45:56;102958.88;;;10.78;56.79
27613;BME280;15036;48.094;-1.690;2023-02-12T00:48:22;102957.75;;;10.71;56.85
27613;BME280;15036;48.094;-1.690;2023-02-12T00:50:47;102954.72;;;10.74;56.76
27613;BME280;15036;48.094;-1.690;2023-02-12T00:53:13;102954.59;;;10.66;56.76
27613;BME280;15036;48.094;-1.690;2023-02-12T00:55:39;102951.84;;;10.66;56.86
27613;BME280;15036;48.094;-1.690;2023-02-12T00:58:04;102944.25;;;10.69;56.71
27613;BME280;15036;48.094;-1.690;2023-02-12T01:00:30;102942.53;;;10.59;56.87
27613;BME280;15036;48.094;-1.690;2023-02-12T01:02:56;102943.41;;;10.59;56.99
27613;BME280;15036;48.094;-1.690;2023-02-12T01:05:21;102941.81;;;10.57;56.94
27613;BME280;15036;48.094;-1.690;2023-02-12T01:07:51;102941.13;;;10.45;57.35
27613;BME280;15036;48.094;-1.690;2023-02-12T01:10:18;102943.41;;;10.59;56.99
27613;BME280;15036;48.094;-1.690;2023-02-12T01:12:45;102930.31;;;10.63;56.77
27613;BME280;15036;48.094;-1.690;2023-02-12T01:15:11;102935.81;;;10.43;57.33
27613;BME280;15036;48.094;-1.690;2023-02-12T01:17:36;102929.03;;;10.48;57.08
27613;BME280;15036;48.094;-1.690;2023-02-12T01:20:03;102930.16;;;10.64;57.01
27613;BME280;15036;48.094;-1.690;2023-02-12T01:22:30;102925.75;;;10.54;57.02
27613;BME280;15036;48.094;-1.690;2023-02-12T01:24:55;102923.41;;;10.59;57.16
27613;BME280;15036;48.094;-1.690;2023-02-12T01:27:21;102918.97;;;10.48;57.58
27613;BME280;15036;48.094;-1.690;2023-02-12T01:29:46;102919.69;;;10.50;57.69
27613;BME280;15036;48.094;-1.690;2023-02-12T01:32:11;102916.81;;;10.52;57.75
27613;BME280;15036;48.094;-1.690;2023-02-12T01:34:38;102912.50;;;10.49;57.82
27613;BME280;15036;48.094;-1.690;2023-02-12T01:37:04;102906.91;;;10.51;58.07
27613;BME280;15036;48.094;-1.690;2023-02-12T01:39:29;102906.19;;;10.48;58.02
27613;BME280;15036;48.094;-1.690;2023-02-12T01:41:54;102908.16;;;10.56;57.89
27613;BME280;15036;48.094;-1.690;2023-02-12T01:44:23;102904.00;;;10.52;58.05
27613;BME280;15036;48.094;-1.690;2023-02-12T01:46:58;102904.16;;;10.51;58.11
27613;BME280;15036;48.094;-1.690;2023-02-12T01:49:39;102896.41;;;10.56;57.91
27613;BME280;15036;48.094;-1.690;2023-02-12T01:52:15;102896.25;;;10.38;58.47
27613;BME280;15036;48.094;-1.690;2023-02-12T01:54:44;102890.94;;;10.56;58.18
27613;BME280;15036;48.094;-1.690;2023-02-12T01:57:11;102885.63;;;10.44;58.22
27613;BME280;15036;48.094;-1.690;2023-02-12T01:59:39;102889.06;;;10.56;57.95
27613;BME280;15036;48.094;-1.690;2023-02-12T02:02:06;102883.16;;;10.61;57.87
27613;BME280;15036;48.094;-1.690;2023-02-12T02:04:37;102885.81;;;10.33;58.49
27613;BME280;15036;48.094;-1.690;2023-02-12T02:07:05;102881.59;;;10.48;58.16
27613;BME280;15036;48.094;-1.690;2023-02-12T02:09:34;102882.44;;;10.59;57.64
27613;BME280;15036;48.094;-1.690;2023-02-12T02:12:00;102884.59;;;10.65;57.59
27613;BME280;15036;48.094;-1.690;2023-02-12T02:14:46;102888.06;;;10.57;57.57
27613;BME280;15036;48.094;-1.690;2023-02-12T02:31:28;102881.75;;;10.47;57.53
27613;BME280;15036;48.094;-1.690;2023-02-12T02:34:02;102874.56;;;10.36;57.67
27613;BME280;15036;48.094;-1.690;2023-02-12T02:39:08;102871.13;;;10.34;57.53
27613;BME280;15036;48.094;-1.690;2023-02-12T02:44:23;102863.41;;;10.30;57.36
27613;BME280;15036;48.094;-1.690;2023-02-12T02:46:51;102864.09;;;10.32;57.51
27613;BME280;15036;48.094;-1.690;2023-02-12T02:49:23;102863.81;;;10.25;57.58
27613;BME280;15036;48.094;-1.690;2023-02-12T02:51:50;102855.31;;;10.38;57.29
27613;BME280;15036;48.094;-1.690;2023-02-12T02:54:25;102862.53;;;10.29;57.41
27613;BME280;15036;48.094;-1.690;2023-02-12T02:56:54;102858.50;;;10.33;57.31
27613;BME280;15036;48.094;-1.690;2023-02-12T02:59:26;102867.28;;;10.27;57.61
27613;BME280;15036;48.094;-1.690;2023-02-12T03:02:19;102862.38;;;10.21;57.74
27613;BME280;15036;48.094;-1.690;2023-02-12T03:04:49;102863.09;;;10.23;57.57
27613;BME280;15036;48.094;-1.690;2023-02-12T03:07:20;102858.38;;;10.16;57.49
27613;BME280;15036;48.094;-1.690;2023-02-12T03:09:55;102852.91;;;10.16;57.47
27613;BME280;15036;48.094;-1.690;2023-02-12T03:15:03;102845.88;;;10.13;57.69
27613;BME280;15036;48.094;-1.690;2023-02-12T03:17:47;102846.16;;;10.10;57.66
27613;BME280;15036;48.094;-1.690;2023-02-12T03:20:23;102853.19;;;10.13;57.61
27613;BME280;15036;48.094;-1.690;2023-02-12T03:23:04;102852.47;;;10.11;57.68
27613;BME280;15036;48.094;-1.690;2023-02-12T03:25:47;102842.97;;;10.05;57.76
27613;BME280;15036;48.094;-1.690;2023-02-12T03:28:26;102852.47;;;10.20;57.33
27613;BME280;15036;48.094;-1.690;2023-02-12T03:31:20;102843.28;;;10.21;57.25
27613;BME280;15036;48.094;-1.690;2023-02-12T03:33:48;102848.75;;;10.12;57.42
27613;BME280;15036;48.094;-1.690;2023-02-12T03:36:47;102845.25;;;10.00;57.60
27613;BME280;15036;48.094;-1.690;2023-02-12T03:39:27;102842.44;;;10.11;57.31
27613;BME280;15036;48.094;-1.690;2023-02-12T03:42:04;102843.69;;;10.07;57.54
27613;BME280;15036;48.094;-1.690;2023-02-12T03:44:56;102850.00;;;9.98;57.60
27613;BME280;15036;48.094;-1.690;2023-02-12T03:50:12;102841.53;;;10.01;57.64
27613;BME280;15036;48.094;-1.690;2023-02-12T03:52:41;102842.41;;;9.92;57.73
27613;BME280;15036;48.094;-1.690;2023-02-12T03:55:07;102844.28;;;9.92;57.86
27613;BME280;15036;48.094;-1.690;2023-02-12T03:57:46;102843.25;;;10.02;57.88
27613;BME280;15036;48.094;-1.690;2023-02-12T04:00:19;102845.25;;;9.91;57.76
27613;BME280;15036;48.094;-1.690;2023-02-12T04:02:44;102843.13;;;9.94;57.76
27613;BME280;15036;48.094;-1.690;2023-02-12T04:05:25;102849.44;;;9.85;57.99
27613;BME280;15036;48.094;-1.690;2023-02-12T04:07:51;102841.81;;;9.89;57.91
27613;BME280;15036;48.094;-1.690;2023-02-12T04:10:21;102850.00;;;9.89;57.89
27613;BME280;15036;48.094;-1.690;2023-02-12T04:13:02;102843.72;;;9.88;57.97
27613;BME280;15036;48.094;-1.690;2023-02-12T04:39:27;102863.50;;;9.81;57.95
27613;BME280;15036;48.094;-1.690;2023-02-12T04:41:58;102854.91;;;9.76;57.83
27613;BME280;15036;48.094;-1.690;2023-02-12T04:44:29;102859.94;;;9.80;57.90
27613;BME280;15036;48.094;-1.690;2023-02-12T04:46:55;102854.16;;;9.74;57.99
27613;BME280;15036;48.094;-1.690;2023-02-12T04:49:21;102851.44;;;9.74;58.02
27613;BME280;15036;48.094;-1.690;2023-02-12T04:51:48;102850.31;;;9.76;58.05
27613;BME280;15036;48.094;-1.690;2023-02-12T04:54:15;102850.88;;;9.70;58.03
27613;BME280;15036;48.094;-1.690;2023-02-12T04:56:41;102852.44;;;9.73;57.90
27613;BME280;15036;48.094;-1.690;2023-02-12T04:59:07;102851.88;;;9.69;58.16
27613;BME280;15036;48.094;-1.690;2023-02-12T05:01:34;102851.59;;;9.72;58.24
27613;BME280;15036;48.094;-1.690;2023-02-12T05:04:00;102858.91;;;9.62;58.58
27613;BME280;15036;48.094;-1.690;2023-02-12T05:06:25;102863.22;;;9.74;58.25
27613;BME280;15036;48.094;-1.690;2023-02-12T05:08:52;102868.53;;;9.76;58.31
27613;BME280;15036;48.094;-1.690;2023-02-12T05:11:17;102866.53;;;9.78;58.41
27613;BME280;15036;48.094;-1.690;2023-02-12T05:13:43;102863.22;;;9.74;58.58
27613;BME280;15036;48.094;-1.690;2023-02-12T05:16:08;102859.47;;;9.75;58.51
27613;BME280;15036;48.094;-1.690;2023-02-12T05:18:34;102860.50;;;9.65;58.96
27613;BME280;15036;48.094;-1.690;2023-02-12T05:21:02;102864.78;;;9.77;58.82
27613;BME280;15036;48.094;-1.690;2023-02-12T05:23:29;102860.91;;;9.79;58.66
27613;BME280;15036;48.094;-1.690;2023-02-12T05:25:59;102864.09;;;9.84;58.57
27613;BME280;15036;48.094;-1.690;2023-02-12T05:28:26;102866.09;;;9.92;58.41
27613;BME280;15036;48.094;-1.690;2023-02-12T05:30:51;102867.81;;;9.83;58.65
27613;BME280;15036;48.094;-1.690;2023-02-12T05:33:17;102867.53;;;9.86;58.70
27613;BME280;15036;48.094;-1.690;2023-02-12T05:35:42;102863.06;;;9.85;58.68
27613;BME280;15036;48.094;-1.690;2023-02-12T05:38:07;102860.22;;;9.96;58.53
27613;BME280;15036;48.094;-1.690;2023-02-12T05:40:33;102864.25;;;9.92;58.58
27613;BME280;15036;48.094;-1.690;2023-02-12T05:43:00;102863.94;;;9.95;58.65
27613;BME280;15036;48.094;-1.690;2023-02-12T05:45:25;102862.97;;;9.96;58.42
27613;BME280;15036;48.094;-1.690;2023-02-12T05:47:55;102864.25;;;9.92;58.70
27613;BME280;15036;48.094;-1.690;2023-02-12T05:50:21;102864.25;;;10.02;58.50
27613;BME280;15036;48.094;-1.690;2023-02-12T05:52:47;102862.66;;;9.90;58.68
27613;BME280;15036;48.094;-1.690;2023-02-12T05:55:13;102860.81;;;9.90;58.78
27613;BME280;15036;48.094;-1.690;2023-02-12T05:57:38;102863.06;;;9.95;58.43
27613;BME280;15036;48.094;-1.690;2023-02-12T06:00:07;102854.78;;;9.96;58.47
27613;BME280;15036;48.094;-1.690;2023-02-12T06:02:33;102860.50;;;9.93;58.36
27613;BME280;15036;48.094;-1.690;2023-02-12T06:04:58;102863.38;;;9.92;58.37
27613;BME280;15036;48.094;-1.690;2023-02-12T06:07:24;102859.78;;;9.91;58.53
27613;BME280;15036;48.094;-1.690;2023-02-12T06:09:50;102858.06;;;9.90;58.37
27613;BME280;15036;48.094;-1.690;2023-02-12T06:12:15;102856.47;;;9.88;58.27
27613;BME280;15036;48.094;-1.690;2023-02-12T06:14:41;102844.69;;;9.87;58.07
27613;BME280;15036;48.094;-1.690;2023-02-12T06:17:06;102843.25;;;9.74;58.35
27613;BME280;15036;48.094;-1.690;2023-02-12T06:19:32;102840.13;;;9.78;58.20
27613;BME280;15036;48.094;-1.690;2023-02-12T06:21:58;102838.09;;;9.80;58.07
27613;BME280;15036;48.094;-1.690;2023-02-12T06:24:23;102836.94;;;9.83;58.14
27613;BME280;15036;48.094;-1.690;2023-02-12T06:26:50;102837.97;;;9.72;58.43
27613;BME280;15036;48.094;-1.690;2023-02-12T06:29:15;102838.06;;;9.71;58.50
27613;BME280;15036;48.094;-1.690;2023-02-12T06:31:41;102840.53;;;9.74;58.46
27613;BME280;15036;48.094;-1.690;2023-02-12T06:34:12;102834.63;;;9.69;58.41
27613;BME280;15036;48.094;-1.690;2023-02-12T06:36:40;102852.00;;;9.68;58.30
27613;BME280;15036;48.094;-1.690;2023-02-12T06:39:07;102854.44;;;9.61;58.42
27613;BME280;15036;48.094;-1.690;2023-02-12T06:41:33;102860.19;;;9.58;58.66
27613;BME280;15036;48.094;-1.690;2023-02-12T06:43:58;102859.06;;;9.60;58.43
27613;BME280;15036;48.094;-1.690;2023-02-12T06:46:24;102863.78;;;9.58;58.48
27613;BME280;15036;48.094;-1.690;2023-02-12T06:48:54;102864.19;;;9.54;58.48
27613;BME280;15036;48.094;-1.690;2023-02-12T06:51:20;102865.63;;;9.58;58.36
27613;BME280;15036;48.094;-1.690;2023-02-12T06:53:48;102871.09;;;9.48;58.50
27613;BME280;15036;48.094;-1.690;2023-02-12T06:56:15;102872.94;;;9.48;58.50
27613;BME280;15036;48.094;-1.690;2023-02-12T06:58:43;102869.75;;;9.43;58.39
27613;BME280;15036;48.094;-1.690;2023-02-12T07:01:13;102878.22;;;9.40;58.40
27613;BME280;15036;48.094;-1.690;2023-02-12T07:03:43;102872.31;;;9.35;58.31
27613;BME280;15036;48.094;-1.690;2023-02-12T07:06:09;102870.59;;;9.34;58.38
27613;BME280;15036;48.094;-1.690;2023-02-12T07:08:35;102874.59;;;9.30;58.51
27613;BME280;15036;48.094;-1.690;2023-02-12T07:11:01;102872.91;;;9.29;58.43
27613;BME280;15036;48.094;-1.690;2023-02-12T07:13:26;102880.75;;;9.22;58.69
27613;BME280;15036;48.094;-1.690;2023-02-12T07:15:52;102874.91;;;9.27;58.56
27613;BME280;15036;48.094;-1.690;2023-02-12T07:18:17;102875.44;;;9.21;58.56
27613;BME280;15036;48.094;-1.690;2023-02-12T07:20:42;102877.75;;;9.25;58.39
27613;BME280;15036;48.094;-1.690;2023-02-12T07:23:11;102877.88;;;9.24;58.58
27613;BME280;15036;48.094;-1.690;2023-02-12T07:25:37;102876.44;;;9.20;58.44
27613;BME280;15036;48.094;-1.690;2023-02-12T07:28:02;102871.72;;;9.22;58.55
27613;BME280;15036;48.094;-1.690;2023-02-12T07:30:29;102868.00;;;9.23;58.54
27613;BME280;15036;48.094;-1.690;2023-02-12T07:32:54;102870.00;;;9.21;58.75
27613;BME280;15036;48.094;-1.690;2023-02-12T07:35:20;102868.72;;;9.25;58.50
27613;BME280;15036;48.094;-1.690;2023-02-12T07:37:45;102871.72;;;9.22;58.64
27613;BME280;15036;48.094;-1.690;2023-02-12T07:40:24;102880.34;;;9.27;58.52
27613;BME280;15036;48.094;-1.690;2023-02-12T07:42:53;102885.38;;;9.31;58.48
27613;BME280;15036;48.094;-1.690;2023-02-12T07:45:19;102880.78;;;9.32;58.67
27613;BME280;15036;48.094;-1.690;2023-02-12T07:47:45;102888.09;;;9.31;58.68
27613;BME280;15036;48.094;-1.690;2023-02-12T07:50:10;102882.94;;;9.38;58.57
27613;BME280;15036;48.094;-1.690;2023-02-12T07:55:49;102882.81;;;9.39;58.55
27613;BME280;15036;48.094;-1.690;2023-02-12T07:58:15;102880.41;;;9.46;58.70
27613;BME280;15036;48.094;-1.690;2023-02-12T08:00:40;102876.38;;;9.40;58.71
27613;BME280;15036;48.094;-1.690;2023-02-12T08:03:05;102875.94;;;9.45;58.79
27613;BME280;15036;48.094;-1.690;2023-02-12T08:05:31;102872.22;;;9.46;58.43
27613;BME280;15036;48.094;-1.690;2023-02-12T08:07:56;102869.34;;;9.57;58.66
27613;BME280;15036;48.094;-1.690;2023-02-12T08:10:21;102870.94;;;9.59;58.59
27613;BME280;15036;48.094;-1.690;2023-02-12T08:12:47;102869.97;;;9.60;58.68
27613;BME280;15036;48.094;-1.690;2023-02-12T08:15:13;102874.56;;;9.79;58.37
27613;BME280;15036;48.094;-1.690;2023-02-12T08:17:39;102881.72;;;9.71;58.57
27613;BME280;15036;48.094;-1.690;2023-02-12T08:20:07;102880.31;;;9.76;58.52
27613;BME280;15036;48.094;-1.690;2023-02-12T08:22:33;102886.50;;;9.78;58.56
27613;BME280;15036;48.094;-1.690;2023-02-12T08:24:58;102883.91;;;9.86;58.54
27613;BME280;15036;48.094;-1.690;2023-02-12T08:27:24;102878.88;;;9.82;58.60
27613;BME280;15036;48.094;-1.690;2023-02-12T08:29:49;102883.47;;;9.91;58.44
27613;BME280;15036;48.094;-1.690;2023-02-12T08:32:14;102893.81;;;9.97;58.13
27613;BME280;15036;48.094;-1.690;2023-02-12T08:34:41;102893.81;;;9.97;58.46
27613;BME280;15036;48.094;-1.690;2023-02-12T08:37:19;102897.56;;;10.05;58.31
27613;BME280;15036;48.094;-1.690;2023-02-12T08:39:45;102888.34;;;10.06;58.42
27613;BME280;15036;48.094;-1.690;2023-02-12T08:42:10;102887.97;;;10.11;58.22
27613;BME280;15036;48.094;-1.690;2023-02-12T08:44:35;102896.44;;;10.17;58.09
27613;BME280;15036;48.094;-1.690;2023-02-12T08:47:01;102903.50;;;10.20;58.30
27613;BME280;15036;48.094;-1.690;2023-02-12T08:49:28;102898.13;;;10.09;58.87
27613;BME280;15036;48.094;-1.690;2023-02-12T08:51:55;102906.22;;;10.29;58.11
27613;BME280;15036;48.094;-1.690;2023-02-12T08:54:23;102903.59;;;10.09;58.37
27613;BME280;15036;48.094;-1.690;2023-02-12T08:56:49;102908.94;;;10.29;58.13
27613;BME280;15036;48.094;-1.690;2023-02-12T08:59:15;102912.50;;;10.59;57.38
27613;BME280;15036;48.094;-1.690;2023-02-12T09:01:42;102911.31;;;10.71;57.16
27613;BME280;15036;48.094;-1.690;2023-02-12T09:04:16;102911.44;;;10.79;56.74
27613;BME280;15036;48.094;-1.690;2023-02-12T09:06:42;102913.16;;;10.80;56.61
27613;BME280;15036;48.094;-1.690;2023-02-12T09:09:08;102905.53;;;10.74;56.90
27613;BME280;15036;48.094;-1.690;2023-02-12T09:11:33;102898.38;;;10.73;56.39
27613;BME280;15036;48.094;-1.690;2023-02-12T09:14:06;102900.31;;;10.90;56.14
27613;BME280;15036;48.094;-1.690;2023-02-12T09:16:33;102906.84;;;10.79;56.21
27613;BME280;15036;48.094;-1.690;2023-02-12T09:18:59;102901.06;;;10.82;56.40
27613;BME280;15036;48.094;-1.690;2023-02-12T09:21:24;102901.50;;;10.87;56.17
27613;BME280;15036;48.094;-1.690;2023-02-12T09:23:50;102899.50;;;10.89;56.38
27613;BME280;15036;48.094;-1.690;2023-02-12T09:26:18;102893.66;;;11.02;56.06
27613;BME280;15036;48.094;-1.690;2023-02-12T09:28:48;102899.50;;;11.16;56.09
27613;BME280;15036;48.094;-1.690;2023-02-12T09:31:19;102908.69;;;11.25;55.85
27613;BME280;15036;48.094;-1.690;2023-02-12T09:33:50;102910.09;;;11.29;55.93
27613;BME280;15036;48.094;-1.690;2023-02-12T09:36:16;102908.44;;;11.46;55.61
27613;BME280;15036;48.094;-1.690;2023-02-12T09:38:42;102905.44;;;11.39;55.38
27613;BME280;15036;48.094;-1.690;2023-02-12T09:47:22;102902.25;;;11.16;55.76
27613;BME280;15036;48.094;-1.690;2023-02-12T09:52:44;102891.16;;;11.45;55.10
27613;BME280;15036;48.094;-1.690;2023-02-12T09:55:21;102897.94;;;11.41;55.60
27613;BME280;15036;48.094;-1.690;2023-02-12T09:57:49;102889.38;;;11.54;54.93
27613;BME280;15036;48.094;-1.690;2023-02-12T10:00:17;102904.72;;;11.37;55.72
27613;BME280;15036;48.094;-1.690;2023-02-12T10:02:49;102899.22;;;11.47;55.27
27613;BME280;15036;48.094;-1.690;2023-02-12T10:05:40;102905.47;;;11.66;54.73
27613;BME280;15036;48.094;-1.690;2023-02-12T10:17:41;102895.09;;;12.05;54.06
27613;BME280;15036;48.094;-1.690;2023-02-12T10:26:30;102913.63;;;12.29;53.31
27613;BME280;15036;48.094;-1.690;2023-02-12T10:29:07;102917.47;;;12.36;53.13
27613;BME280;15036;48.094;-1.690;2023-02-12T10:31:37;102917.63;;;12.34;53.00
27613;BME280;15036;48.094;-1.690;2023-02-12T10:34:13;102913.03;;;12.60;52.52
27613;BME280;15036;48.094;-1.690;2023-02-12T10:44:18;102901.59;;;12.22;53.27
27613;BME280;15036;48.094;-1.690;2023-02-12T10:46:44;102906.25;;;12.47;52.79
27613;BME280;15036;48.094;-1.690;2023-02-12T10:49:12;102899.19;;;12.62;52.34
27613;BME280;15036;48.094;-1.690;2023-02-12T10:57:25;102901.44;;;12.66;51.66
27613;BME280;15036;48.094;-1.690;2023-02-12T11:00:23;102900.00;;;12.80;51.85
27613;BME280;15036;48.094;-1.690;2023-02-12T11:05:37;102899.91;;;13.15;51.34
27613;BME280;15036;48.094;-1.690;2023-02-12T11:08:04;102899.19;;;13.05;51.22
27613;BME280;15036;48.094;-1.690;2023-02-12T11:10:40;102894.78;;;13.20;50.93
27613;BME280;15036;48.094;-1.690;2023-02-12T11:13:25;102887.09;;;13.24;50.56
27613;BME280;15036;48.094;-1.690;2023-02-12T11:15:52;102883.47;;;13.23;50.69
27613;BME280;15036;48.094;-1.690;2023-02-12T11:18:25;102878.47;;;13.52;50.29
27613;BME280;15036;48.094;-1.690;2023-02-12T11:21:06;102879.81;;;13.48;50.39
27613;BME280;15036;48.094;-1.690;2023-02-12T11:23:38;102874.97;;;13.34;50.30
27613;BME280;15036;48.094;-1.690;2023-02-12T11:28:58;102874.06;;;13.26;50.67
27613;BME280;15036;48.094;-1.690;2023-02-12T11:31:31;102860.94;;;13.45;50.13
27613;BME280;15036;48.094;-1.690;2023-02-12T11:36:28;102854.72;;;13.35;50.65
27613;BME280;15036;48.094;-1.690;2023-02-12T11:39:17;102855.53;;;13.77;49.59
27613;BME280;15036;48.094;-1.690;2023-02-12T11:41:43;102855.78;;;13.42;49.81
27613;BME280;15036;48.094;-1.690;2023-02-12T11:46:52;102861.81;;;13.46;49.98
27613;BME280;15036;48.094;-1.690;2023-02-12T11:49:21;102864.31;;;13.31;50.34
27613;BME280;15036;48.094;-1.690;2023-02-12T11:51:48;102856.19;;;13.14;50.60
27613;BME280;15036;48.094;-1.690;2023-02-12T11:54:28;102846.97;;;13.72;49.93
27613;BME280;15036;48.094;-1.690;2023-02-12T11:56:55;102853.63;;;13.70;50.38
27613;BME280;15036;48.094;-1.690;2023-02-12T11:59:29;102855.91;;;14.07;49.87
27613;BME280;15036;48.094;-1.690;2023-02-12T12:01:58;102843.88;;;13.91;49.78
27613;BME280;15036;48.094;-1.690;2023-02-12T12:04:28;102844.94;;;14.23;49.41
27613;BME280;15036;48.094;-1.690;2023-02-12T12:12:39;102826.06;;;14.12;48.68
27613;BME280;15036;48.094;-1.690;2023-02-12T12:15:22;102826.78;;;14.38;47.58
27613;BME280;15036;48.094;-1.690;2023-02-12T12:18:43;102833.94;;;14.23;48.29
27613;BME280;15036;48.094;-1.690;2023-02-12T12:21:38;102823.47;;;14.42;48.21
27613;BME280;15036;48.094;-1.690;2023-02-12T12:26:32;102818.69;;;14.12;48.29
27613;BME280;15036;48.094;-1.690;2023-02-12T12:29:11;102813.19;;;14.36;48.25
27613;BME280;15036;48.094;-1.690;2023-02-12T12:31:55;102805.47;;;14.48;48.16
27613;BME280;15036;48.094;-1.690;2023-02-12T12:34:24;102805.56;;;14.62;48.15
27613;BME280;15036;48.094;-1.690;2023-02-12T12:43:11;102779.53;;;14.97;47.25
27613;BME280;15036;48.094;-1.690;2023-02-12T12:51:26;102771.69;;;14.78;47.02
27613;BME280;15036;48.094;-1.690;2023-02-12T13:04:44;102751.72;;;15.23;46.29
27613;BME280;15036;48.094;-1.690;2023-02-12T13:07:26;102751.78;;;15.37;45.93
27613;BME280;15036;48.094;-1.690;2023-02-12T13:18:13;102740.22;;;15.50;45.92
27613;BME280;15036;48.094;-1.690;2023-02-12T13:20:53;102746.00;;;15.55;45.36
27613;BME280;15036;48.094;-1.690;2023-02-12T13:26:09;102744.53;;;15.90;45.01
27613;BME280;15036;48.094;-1.690;2023-02-12T13:28:49;102743.91;;;16.02;44.84
27613;BME280;15036;48.094;-1.690;2023-02-12T13:31:28;102736.13;;;16.20;44.67
27613;BME280;15036;48.094;-1.690;2023-02-12T13:34:06;102733.44;;;16.79;44.00
27613;BME280;15036;48.094;-1.690;2023-02-12T13:36:36;102725.31;;;17.06;42.74
27613;BME280;15036;48.094;-1.690;2023-02-12T13:39:14;102711.88;;;17.18;42.19
27613;BME280;15036;48.094;-1.690;2023-02-12T13:41:46;102719.78;;;17.57;41.18
27613;BME280;15036;48.094;-1.690;2023-02-12T13:44:18;102721.19;;;17.74;41.08
27613;BME280;15036;48.094;-1.690;2023-02-12T13:52:12;102709.94;;;18.24;40.22
27613;BME280;15036;48.094;-1.690;2023-02-12T13:57:26;102712.50;;;18.53;39.50
27613;BME280;15036;48.094;-1.690;2023-02-12T13:59:54;102706.53;;;18.29;39.77
27613;BME280;15036;48.094;-1.690;2023-02-12T14:07:46;102706.19;;;18.66;39.33
27613;BME280;15036;48.094;-1.690;2023-02-12T14:10:31;102695.22;;;18.85;38.68
27613;BME280;15036;48.094;-1.690;2023-02-12T14:13:20;102691.63;;;18.91;38.56
27613;BME280;15036;48.094;-1.690;2023-02-12T14:15:52;102691.03;;;19.16;38.29
27613;BME280;15036;48.094;-1.690;2023-02-12T14:23:44;102693.72;;;19.50;37.66
27613;BME280;15036;48.094;-1.690;2023-02-12T14:26:19;102688.28;;;19.09;37.68
27613;BME280;15036;48.094;-1.690;2023-02-12T14:28:51;102690.28;;;19.41;37.00
27613;BME280;15036;48.094;-1.690;2023-02-12T14:33:48;102680.97;;;19.68;36.61
27613;BME280;15036;48.094;-1.690;2023-02-12T14:38:56;102676.81;;;19.25;37.14
27613;BME280;15036;48.094;-1.690;2023-02-12T14:41:32;102667.09;;;19.81;36.94
27613;BME280;15036;48.094;-1.690;2023-02-12T14:49:35;102663.69;;;19.79;35.91
27613;BME280;15036;48.094;-1.690;2023-02-12T14:57:20;102652.19;;;19.69;35.25
27613;BME280;15036;48.094;-1.690;2023-02-12T14:59:49;102651.91;;;19.25;35.85
27613;BME280;15036;48.094;-1.690;2023-02-12T15:02:24;102653.47;;;19.80;35.32
27613;BME280;15036;48.094;-1.690;2023-02-12T15:04:52;102662.41;;;19.82;35.41
27613;BME280;15036;48.094;-1.690;2023-02-12T15:07:36;102652.41;;;19.94;35.47
27613;BME280;15036;48.094;-1.690;2023-02-12T15:10:14;102652.16;;;19.96;35.59
27613;BME280;15036;48.094;-1.690;2023-02-12T15:12:46;102648.13;;;19.98;35.64
27613;BME280;15036;48.094;-1.690;2023-02-12T15:15:22;102648.09;;;20.11;35.30
27613;BME280;15036;48.094;-1.690;2023-02-12T15:18:03;102654.97;;;19.82;34.97
27613;BME280;15036;48.094;-1.690;2023-02-12T15:20:47;102651.75;;;19.59;35.09
27613;BME280;15036;48.094;-1.690;2023-02-12T15:23:37;102645.78;;;19.75;34.96
27613;BME280;15036;48.094;-1.690;2023-02-12T15:26:04;102650.25;;;19.96;34.56
27613;BME280;15036;48.094;-1.690;2023-02-12T15:28:32;102647.47;;;20.09;34.93
27613;BME280;15036;48.094;-1.690;2023-02-12T15:31:04;102650.25;;;19.96;34.73
27613;BME280;15036;48.094;-1.690;2023-02-12T15:33:36;102639.78;;;20.18;34.66
27613;BME280;15036;48.094;-1.690;2023-02-12T15:36:03;102637.00;;;20.11;34.99
27613;BME280;15036;48.094;-1.690;2023-02-12T15:38:35;102643.09;;;20.52;34.38
27613;BME280;15036;48.094;-1.690;2023-02-12T15:41:01;102647.25;;;20.24;34.32
27613;BME280;15036;48.094;-1.690;2023-02-12T15:43:29;102648.06;;;20.37;34.01
27613;BME280;15036;48.094;-1.690;2023-02-12T15:46:00;102641.31;;;20.20;34.33
27613;BME280;15036;48.094;-1.690;2023-02-12T15:48:33;102644.84;;;20.40;34.38
27613;BME280;15036;48.094;-1.690;2023-02-12T15:53:43;102649.53;;;20.46;34.22
27613;BME280;15036;48.094;-1.690;2023-02-12T15:56:17;102643.78;;;20.48;34.11
27613;BME280;15036;48.094;-1.690;2023-02-12T15:58:51;102643.34;;;20.44;34.17